sensor_id;sensor_type;location;lat;lon;timestamp;temperature;humidity
18103;DHT22;9178;51.120;6.192;2023-01-09T00:00:05;7.70;99.90
18103;DHT22;9178;51.120;6.192;2023-01-09T00:02:32;7.70;99.90
18103;DHT22;9178;51.120;6.192;2023-01-09T00:04:59;7.70;99.90
18103;DHT22;9178;51.120;6.192;2023-01-09T00:07:26;7.70;99.90
18103;DHT22;9178;51.120;6.192;2023-01-09T00:09:52;7.70;99.90
18103;DHT22;9178;51.120;6.192;2023-01-09T00:12:19;7.70;99.90
18103;DHT22;9178;51.120;6.192;2023-01-09T00:14:47;7.60;99.90
18103;DHT22;9178;51.120;6.192;2023-01-09T00:17:14;7.60;99.90
18103;DHT22;9178;51.120;6.192;2023-01-09T00:19:41;7.50;99.90
18103;DHT22;9178;51.120;6.192;2023-01-09T00:22:07;7.50;99.90
18103;DHT22;9178;51.120;6.192;2023-01-09T00:24:35;7.50;99.90
18103;DHT22;9178;51.120;6.192;2023-01-09T00:27:01;7.50;99.90
18103;DHT22;9178;51.120;6.192;2023-01-09T00:29:28;7.40;99.90
18103;DHT22;9178;51.120;6.192;2023-01-09T00:31:56;7.40;99.90
18103;DHT22;9178;51.120;6.192;2023-01-09T00:34:25;7.40;99.90
18103;DHT22;9178;51.120;6.192;2023-01-09T00:36:51;7.40;99.90
18103;DHT22;9178;51.120;6.192;2023-01-09T00:39:20;7.40;99.90
18103;DHT22;9178;51.120;6.192;2023-01-09T00:41:50;7.30;99.90
18103;DHT22;9178;51.120;6.192;2023-01-09T00:44:20;7.30;99.90
18103;DHT22;9178;51.120;6.192;2023-01-09T00:46:54;7.20;99.90
18103;DHT22;9178;51.120;6.192;2023-01-09T00:49:23;7.20;99.90
18103;DHT22;9178;51.120;6.192;2023-01-09T00:51:51;7.20;99.90
18103;DHT22;9178;51.120;6.192;2023-01-09T00:54:19;7.10;99.90
18103;DHT22;9178;51.120;6.192;2023-01-09T00:56:46;7.10;99.90
18103;DHT22;9178;51.120;6.192;2023-01-09T00:59:14;7.10;99.90
18103;DHT22;9178;51.120;6.192;2023-01-09T01:01:41;7.10;99.90
18103;DHT22;9178;51.120;6.192;2023-01-09T01:04:07;7.10;99.90
18103;DHT22;9178;51.120;6.192;2023-01-09T01:06:49;7.10;99.90
18103;DHT22;9178;51.120;6.192;2023-01-09T01:09:34;7.10;99.90
18103;DHT22;9178;51.120;6.192;2023-01-09T01:12:01;7.10;99.90
18103;DHT22;9178;51.120;6.192;2023-01-09T01:14:31;7.10;99.90
18103;DHT22;9178;51.120;6.192;2023-01-09T01:16:58;7.10;99.90
18103;DHT22;9178;51.120;6.192;2023-01-09T01:19:25;7.10;99.90
18103;DHT22;9178;51.120;6.192;2023-01-09T01:21:54;7.10;99.90
18103;DHT22;9178;51.120;6.192;2023-01-09T01:24:21;7.10;99.90
18103;DHT22;9178;51.120;6.192;2023-01-09T01:26:48;7.10;99.90
18103;DHT22;9178;51.120;6.192;2023-01-09T01:29:15;7.00;99.90
18103;DHT22;9178;51.120;6.192;2023-01-09T01:31:41;7.00;99.90
18103;DHT22;9178;51.120;6.192;2023-01-09T01:34:08;7.00;99.90
18103;DHT22;9178;51.120;6.192;2023-01-09T01:36:35;7.00;99.90
18103;DHT22;9178;51.120;6.192;2023-01-09T01:39:03;7.00;99.90
18103;DHT22;9178;51.120;6.192;2023-01-09T01:41:30;6.90;99.90
18103;DHT22;9178;51.120;6.192;2023-01-09T01:43:59;6.90;99.90
18103;DHT22;9178;51.120;6.192;2023-01-09T01:46:27;6.90;99.90
18103;DHT22;9178;51.120;6.192;2023-01-09T01:49:00;6.90;99.90
18103;DHT22;9178;51.120;6.192;2023-01-09T01:51:32;6.90;99.90
18103;DHT22;9178;51.120;6.192;2023-01-09T01:54:04;6.80;99.90
18103;DHT22;9178;51.120;6.192;2023-01-09T01:56:36;6.80;99.90
18103;DHT22;9178;51.120;6.192;2023-01-09T01:59:12;6.80;99.90
18103;DHT22;9178;51.120;6.192;2023-01-09T02:01:43;6.70;99.90
18103;DHT22;9178;51.120;6.192;2023-01-09T02:04:11;6.80;99.90
18103;DHT22;9178;51.120;6.192;2023-01-09T02:06:38;6.80;99.90
18103;DHT22;9178;51.120;6.192;2023-01-09T02:09:07;6.80;99.90
18103;DHT22;9178;51.120;6.192;2023-01-09T02:11:34;6.80;99.90
18103;DHT22;9178;51.120;6.192;2023-01-09T02:14:01;6.80;99.90
18103;DHT22;9178;51.120;6.192;2023-01-09T02:16:38;6.80;99.90
18103;DHT22;9178;51.120;6.192;2023-01-09T02:19:30;6.80;99.90
18103;DHT22;9178;51.120;6.192;2023-01-09T02:22:06;6.80;99.90
18103;DHT22;9178;51.120;6.192;2023-01-09T02:25:01;6.80;99.90
18103;DHT22;9178;51.120;6.192;2023-01-09T02:30:34;6.80;99.90
18103;DHT22;9178;51.120;6.192;2023-01-09T02:33:19;6.80;99.90
18103;DHT22;9178;51.120;6.192;2023-01-09T02:36:13;6.80;99.90
18103;DHT22;9178;51.120;6.192;2023-01-09T02:38:55;6.80;99.90
18103;DHT22;9178;51.120;6.192;2023-01-09T02:41:29;6.80;99.90
18103;DHT22;9178;51.120;6.192;2023-01-09T02:44:19;6.80;99.90
18103;DHT22;9178;51.120;6.192;2023-01-09T02:46:58;6.80;99.90
18103;DHT22;9178;51.120;6.192;2023-01-09T02:49:25;6.80;99.90
18103;DHT22;9178;51.120;6.192;2023-01-09T02:52:00;6.80;99.90
18103;DHT22;9178;51.120;6.192;2023-01-09T02:54:39;6.70;99.90
18103;DHT22;9178;51.120;6.192;2023-01-09T02:57:17;6.60;99.90
18103;DHT22;9178;51.120;6.192;2023-01-09T02:59:59;6.50;99.90
18103;DHT22;9178;51.120;6.192;2023-01-09T03:02:42;6.50;99.90
18103;DHT22;9178;51.120;6.192;2023-01-09T03:05:16;6.40;99.90
18103;DHT22;9178;51.120;6.192;2023-01-09T03:07:47;6.40;99.90
18103;DHT22;9178;51.120;6.192;2023-01-09T03:10:19;6.40;99.90
18103;DHT22;9178;51.120;6.192;2023-01-09T03:12:49;6.30;99.90
18103;DHT22;9178;51.120;6.192;2023-01-09T03:15:20;6.30;99.90
18103;DHT22;9178;51.120;6.192;2023-01-09T03:17:50;6.20;99.90
18103;DHT22;9178;51.120;6.192;2023-01-09T03:20:21;6.20;99.90
18103;DHT22;9178;51.120;6.192;2023-01-09T03:22:53;6.10;99.90
18103;DHT22;9178;51.120;6.192;2023-01-09T03:25:20;6.10;99.90
18103;DHT22;9178;51.120;6.192;2023-01-09T03:27:49;6.00;99.90
18103;DHT22;9178;51.120;6.192;2023-01-09T03:30:18;6.00;99.90
18103;DHT22;9178;51.120;6.192;2023-01-09T03:32:45;6.00;99.90
18103;DHT22;9178;51.120;6.192;2023-01-09T03:35:13;5.90;99.90
18103;DHT22;9178;51.120;6.192;2023-01-09T03:37:40;5.90;99.90
18103;DHT22;9178;51.120;6.192;2023-01-09T03:40:08;5.80;99.90
18103;DHT22;9178;51.120;6.192;2023-01-09T03:42:35;5.80;99.90
18103;DHT22;9178;51.120;6.192;2023-01-09T03:45:03;5.80;99.90
18103;DHT22;9178;51.120;6.192;2023-01-09T03:47:30;5.70;99.90
18103;DHT22;9178;51.120;6.192;2023-01-09T03:49:57;5.70;99.90
18103;DHT22;9178;51.120;6.192;2023-01-09T03:52:25;5.70;99.90
18103;DHT22;9178;51.120;6.192;2023-01-09T03:54:52;5.70;99.90
18103;DHT22;9178;51.120;6.192;2023-01-09T03:57:18;5.70;99.90
18103;DHT22;9178;51.120;6.192;2023-01-09T03:59:45;5.60;99.90
18103;DHT22;9178;51.120;6.192;2023-01-09T04:02:12;5.60;99.90
18103;DHT22;9178;51.120;6.192;2023-01-09T04:04:39;5.60;99.90
18103;DHT22;9178;51.120;6.192;2023-01-09T04:07:06;5.60;99.90
18103;DHT22;9178;51.120;6.192;2023-01-09T04:09:34;5.60;99.90
18103;DHT22;9178;51.120;6.192;2023-01-09T04:12:01;5.60;99.90
18103;DHT22;9178;51.120;6.192;2023-01-09T04:14:27;5.60;99.90
18103;DHT22;9178;51.120;6.192;2023-01-09T04:16:54;5.60;99.90
18103;DHT22;9178;51.120;6.192;2023-01-09T04:19:21;5.60;99.90
18103;DHT22;9178;51.120;6.192;2023-01-09T04:21:48;5.70;99.90
18103;DHT22;9178;51.120;6.192;2023-01-09T04:24:14;5.70;99.90
18103;DHT22;9178;51.120;6.192;2023-01-09T04:26:43;5.70;99.90
18103;DHT22;9178;51.120;6.192;2023-01-09T04:29:09;5.70;99.90
18103;DHT22;9178;51.120;6.192;2023-01-09T04:31:36;5.80;99.90
18103;DHT22;9178;51.120;6.192;2023-01-09T04:34:03;5.80;99.90
18103;DHT22;9178;51.120;6.192;2023-01-09T04:36:30;5.90;99.90
18103;DHT22;9178;51.120;6.192;2023-01-09T04:38:59;5.90;99.90
18103;DHT22;9178;51.120;6.192;2023-01-09T04:41:25;5.90;99.90
18103;DHT22;9178;51.120;6.192;2023-01-09T04:44:11;6.00;99.90
18103;DHT22;9178;51.120;6.192;2023-01-09T04:46:38;6.00;99.90
18103;DHT22;9178;51.120;6.192;2023-01-09T04:49:04;6.10;99.90
18103;DHT22;9178;51.120;6.192;2023-01-09T04:51:31;6.10;99.90
18103;DHT22;9178;51.120;6.192;2023-01-09T04:53:58;6.20;99.90
18103;DHT22;9178;51.120;6.192;2023-01-09T04:56:25;6.20;99.90
18103;DHT22;9178;51.120;6.192;2023-01-09T04:58:52;6.20;99.90
18103;DHT22;9178;51.120;6.192;2023-01-09T05:01:20;6.20;99.90
18103;DHT22;9178;51.120;6.192;2023-01-09T05:03:47;6.30;99.90
18103;DHT22;9178;51.120;6.192;2023-01-09T05:06:14;6.30;99.90
18103;DHT22;9178;51.120;6.192;2023-01-09T05:08:41;6.30;99.90
18103;DHT22;9178;51.120;6.192;2023-01-09T05:11:07;6.30;99.90
18103;DHT22;9178;51.120;6.192;2023-01-09T05:13:34;6.30;99.90
18103;DHT22;9178;51.120;6.192;2023-01-09T05:16:01;6.40;99.90
18103;DHT22;9178;51.120;6.192;2023-01-09T05:18:29;6.40;99.90
18103;DHT22;9178;51.120;6.192;2023-01-09T05:20:56;6.40;99.90
18103;DHT22;9178;51.120;6.192;2023-01-09T05:23:23;6.40;99.90
18103;DHT22;9178;51.120;6.192;2023-01-09T05:25:50;6.50;99.90
18103;DHT22;9178;51.120;6.192;2023-01-09T05:28:16;6.50;99.90
18103;DHT22;9178;51.120;6.192;2023-01-09T05:30:43;6.50;99.90
18103;DHT22;9178;51.120;6.192;2023-01-09T05:33:10;6.50;99.90
18103;DHT22;9178;51.120;6.192;2023-01-09T05:35:38;6.60;99.90
18103;DHT22;9178;51.120;6.192;2023-01-09T05:38:05;6.60;99.90
18103;DHT22;9178;51.120;6.192;2023-01-09T05:40:32;6.60;99.90
18103;DHT22;9178;51.120;6.192;2023-01-09T05:42:59;6.70;99.90
18103;DHT22;9178;51.120;6.192;2023-01-09T05:45:25;6.70;99.90
18103;DHT22;9178;51.120;6.192;2023-01-09T05:47:52;6.70;99.90
18103;DHT22;9178;51.120;6.192;2023-01-09T05:50:19;6.70;99.90
18103;DHT22;9178;51.120;6.192;2023-01-09T05:52:47;6.70;99.90
18103;DHT22;9178;51.120;6.192;2023-01-09T05:55:14;6.70;99.90
18103;DHT22;9178;51.120;6.192;2023-01-09T05:57:41;6.80;99.90
18103;DHT22;9178;51.120;6.192;2023-01-09T06:00:09;6.80;99.90
18103;DHT22;9178;51.120;6.192;2023-01-09T06:02:36;6.80;99.90
18103;DHT22;9178;51.120;6.192;2023-01-09T06:05:03;6.80;99.90
18103;DHT22;9178;51.120;6.192;2023-01-09T06:07:30;6.80;99.90
18103;DHT22;9178;51.120;6.192;2023-01-09T06:10:00;6.80;99.90
18103;DHT22;9178;51.120;6.192;2023-01-09T06:12:27;6.90;99.90
18103;DHT22;9178;51.120;6.192;2023-01-09T06:14:54;6.90;99.90
18103;DHT22;9178;51.120;6.192;2023-01-09T06:17:21;6.90;99.90
18103;DHT22;9178;51.120;6.192;2023-01-09T06:19:47;6.90;99.90
18103;DHT22;9178;51.120;6.192;2023-01-09T06:22:15;6.90;99.90
18103;DHT22;9178;51.120;6.192;2023-01-09T06:24:42;7.00;99.90
18103;DHT22;9178;51.120;6.192;2023-01-09T06:27:10;7.00;99.90
18103;DHT22;9178;51.120;6.192;2023-01-09T06:29:38;7.00;99.90
18103;DHT22;9178;51.120;6.192;2023-01-09T06:32:05;7.00;99.90
18103;DHT22;9178;51.120;6.192;2023-01-09T06:34:32;7.00;99.90
18103;DHT22;9178;51.120;6.192;2023-01-09T06:36:58;7.00;99.90
18103;DHT22;9178;51.120;6.192;2023-01-09T06:39:25;7.00;99.90
18103;DHT22;9178;51.120;6.192;2023-01-09T06:41:52;7.10;99.90
18103;DHT22;9178;51.120;6.192;2023-01-09T06:44:20;7.10;99.90
18103;DHT22;9178;51.120;6.192;2023-01-09T06:46:47;7.20;99.90
18103;DHT22;9178;51.120;6.192;2023-01-09T06:49:13;7.20;99.90
18103;DHT22;9178;51.120;6.192;2023-01-09T06:51:42;7.20;99.90
18103;DHT22;9178;51.120;6.192;2023-01-09T06:54:09;7.20;99.90
18103;DHT22;9178;51.120;6.192;2023-01-09T06:56:35;7.30;99.90
18103;DHT22;9178;51.120;6.192;2023-01-09T06:59:02;7.30;99.90
18103;DHT22;9178;51.120;6.192;2023-01-09T07:01:31;7.30;99.90
18103;DHT22;9178;51.120;6.192;2023-01-09T07:03:57;7.30;99.90
18103;DHT22;9178;51.120;6.192;2023-01-09T07:06:24;7.40;99.90
18103;DHT22;9178;51.120;6.192;2023-01-09T07:08:51;7.30;99.90
18103;DHT22;9178;51.120;6.192;2023-01-09T07:11:18;7.30;99.90
18103;DHT22;9178;51.120;6.192;2023-01-09T07:13:44;7.40;99.90
18103;DHT22;9178;51.120;6.192;2023-01-09T07:16:11;7.40;99.90
18103;DHT22;9178;51.120;6.192;2023-01-09T07:18:39;7.30;99.90
18103;DHT22;9178;51.120;6.192;2023-01-09T07:21:06;7.30;99.90
18103;DHT22;9178;51.120;6.192;2023-01-09T07:23:33;7.40;99.90
18103;DHT22;9178;51.120;6.192;2023-01-09T07:26:00;7.40;99.90
18103;DHT22;9178;51.120;6.192;2023-01-09T07:28:27;7.40;99.90
18103;DHT22;9178;51.120;6.192;2023-01-09T07:30:53;7.40;99.90
18103;DHT22;9178;51.120;6.192;2023-01-09T07:33:20;7.40;99.90
18103;DHT22;9178;51.120;6.192;2023-01-09T07:35:49;7.50;99.90
18103;DHT22;9178;51.120;6.192;2023-01-09T07:38:16;7.50;99.90
18103;DHT22;9178;51.120;6.192;2023-01-09T07:40:43;7.50;99.90
18103;DHT22;9178;51.120;6.192;2023-01-09T07:43:10;7.50;99.90
18103;DHT22;9178;51.120;6.192;2023-01-09T07:45:37;7.50;99.90
18103;DHT22;9178;51.120;6.192;2023-01-09T07:48:04;7.50;99.90
18103;DHT22;9178;51.120;6.192;2023-01-09T07:50:31;7.50;99.90
18103;DHT22;9178;51.120;6.192;2023-01-09T07:52:59;7.60;99.90
18103;DHT22;9178;51.120;6.192;2023-01-09T07:55:26;7.60;99.90
18103;DHT22;9178;51.120;6.192;2023-01-09T07:57:52;7.60;99.90
18103;DHT22;9178;51.120;6.192;2023-01-09T08:00:20;7.60;99.90
18103;DHT22;9178;51.120;6.192;2023-01-09T08:02:50;7.60;99.90
18103;DHT22;9178;51.120;6.192;2023-01-09T08:05:19;7.60;99.90
18103;DHT22;9178;51.120;6.192;2023-01-09T08:07:47;7.60;99.90
18103;DHT22;9178;51.120;6.192;2023-01-09T08:10:17;7.60;99.90
18103;DHT22;9178;51.120;6.192;2023-01-09T08:12:45;7.60;99.90
18103;DHT22;9178;51.120;6.192;2023-01-09T08:15:13;7.70;99.90
18103;DHT22;9178;51.120;6.192;2023-01-09T08:17:41;7.70;99.90
18103;DHT22;9178;51.120;6.192;2023-01-09T08:20:10;7.70;99.90
18103;DHT22;9178;51.120;6.192;2023-01-09T08:22:38;7.70;99.90
18103;DHT22;9178;51.120;6.192;2023-01-09T08:25:07;7.80;99.90
18103;DHT22;9178;51.120;6.192;2023-01-09T08:27:35;7.80;99.90
18103;DHT22;9178;51.120;6.192;2023-01-09T08:30:03;7.80;99.90
18103;DHT22;9178;51.120;6.192;2023-01-09T08:32:30;7.80;99.90
18103;DHT22;9178;51.120;6.192;2023-01-09T08:34:56;7.80;99.90
18103;DHT22;9178;51.120;6.192;2023-01-09T08:37:23;7.80;99.90
18103;DHT22;9178;51.120;6.192;2023-01-09T08:39:50;7.80;99.90
18103;DHT22;9178;51.120;6.192;2023-01-09T08:42:17;7.80;99.90
18103;DHT22;9178;51.120;6.192;2023-01-09T08:45:04;7.90;99.90
18103;DHT22;9178;51.120;6.192;2023-01-09T08:47:49;7.80;99.90
18103;DHT22;9178;51.120;6.192;2023-01-09T08:50:17;7.80;99.90
18103;DHT22;9178;51.120;6.192;2023-01-09T08:52:48;7.90;99.90
18103;DHT22;9178;51.120;6.192;2023-01-09T08:55:15;7.90;99.90
18103;DHT22;9178;51.120;6.192;2023-01-09T08:57:47;8.00;99.90
18103;DHT22;9178;51.120;6.192;2023-01-09T09:00:20;8.00;99.90
18103;DHT22;9178;51.120;6.192;2023-01-09T09:02:50;8.00;99.90
18103;DHT22;9178;51.120;6.192;2023-01-09T09:05:20;8.00;99.90
18103;DHT22;9178;51.120;6.192;2023-01-09T09:07:47;8.10;99.90
18103;DHT22;9178;51.120;6.192;2023-01-09T09:10:16;8.10;99.90
18103;DHT22;9178;51.120;6.192;2023-01-09T09:12:48;8.10;99.90
18103;DHT22;9178;51.120;6.192;2023-01-09T09:15:20;8.20;99.90
18103;DHT22;9178;51.120;6.192;2023-01-09T09:17:51;8.20;99.90
18103;DHT22;9178;51.120;6.192;2023-01-09T09:20:20;8.30;99.90
18103;DHT22;9178;51.120;6.192;2023-01-09T09:22:51;8.20;99.90
18103;DHT22;9178;51.120;6.192;2023-01-09T09:25:19;8.20;99.90
18103;DHT22;9178;51.120;6.192;2023-01-09T09:27:50;8.20;99.90
18103;DHT22;9178;51.120;6.192;2023-01-09T09:30:20;8.20;99.90
18103;DHT22;9178;51.120;6.192;2023-01-09T09:32:48;8.20;99.90
18103;DHT22;9178;51.120;6.192;2023-01-09T09:35:16;8.20;99.90
18103;DHT22;9178;51.120;6.192;2023-01-09T09:37:55;8.20;99.90
18103;DHT22;9178;51.120;6.192;2023-01-09T09:40:43;8.20;99.90
18103;DHT22;9178;51.120;6.192;2023-01-09T09:43:53;8.10;99.90
18103;DHT22;9178;51.120;6.192;2023-01-09T09:46:55;8.20;99.90
18103;DHT22;9178;51.120;6.192;2023-01-09T09:49:27;8.30;99.90
18103;DHT22;9178;51.120;6.192;2023-01-09T09:52:04;8.30;99.90
18103;DHT22;9178;51.120;6.192;2023-01-09T09:54:38;8.40;99.90
18103;DHT22;9178;51.120;6.192;2023-01-09T09:57:11;8.30;99.90
18103;DHT22;9178;51.120;6.192;2023-01-09T09:59:40;8.30;99.90
18103;DHT22;9178;51.120;6.192;2023-01-09T10:02:22;8.30;99.90
18103;DHT22;9178;51.120;6.192;2023-01-09T10:04:55;8.40;99.90
18103;DHT22;9178;51.120;6.192;2023-01-09T10:07:27;8.40;99.90
18103;DHT22;9178;51.120;6.192;2023-01-09T10:09:58;8.40;99.90
18103;DHT22;9178;51.120;6.192;2023-01-09T10:12:27;8.40;99.90
18103;DHT22;9178;51.120;6.192;2023-01-09T10:15:01;8.40;99.90
18103;DHT22;9178;51.120;6.192;2023-01-09T10:17:45;8.40;99.90
18103;DHT22;9178;51.120;6.192;2023-01-09T10:20:33;8.40;99.90
18103;DHT22;9178;51.120;6.192;2023-01-09T10:23:15;8.40;99.90
18103;DHT22;9178;51.120;6.192;2023-01-09T10:25:55;8.40;99.90
18103;DHT22;9178;51.120;6.192;2023-01-09T10:28:39;8.40;99.90
18103;DHT22;9178;51.120;6.192;2023-01-09T10:31:17;8.40;99.90
18103;DHT22;9178;51.120;6.192;2023-01-09T10:33:59;8.40;99.90
18103;DHT22;9178;51.120;6.192;2023-01-09T10:36:58;8.40;99.90
18103;DHT22;9178;51.120;6.192;2023-01-09T10:39:40;8.40;99.90
18103;DHT22;9178;51.120;6.192;2023-01-09T10:42:18;8.40;99.90
18103;DHT22;9178;51.120;6.192;2023-01-09T10:44:57;8.40;99.90
18103;DHT22;9178;51.120;6.192;2023-01-09T10:47:29;8.50;99.90
18103;DHT22;9178;51.120;6.192;2023-01-09T10:50:18;8.60;99.90
18103;DHT22;9178;51.120;6.192;2023-01-09T10:52:49;8.60;99.90
18103;DHT22;9178;51.120;6.192;2023-01-09T10:55:26;8.70;99.90
18103;DHT22;9178;51.120;6.192;2023-01-09T10:57:59;8.80;99.90
18103;DHT22;9178;51.120;6.192;2023-01-09T11:00:27;8.90;99.90
18103;DHT22;9178;51.120;6.192;2023-01-09T11:02:54;8.90;99.90
18103;DHT22;9178;51.120;6.192;2023-01-09T11:05:24;8.90;99.90
18103;DHT22;9178;51.120;6.192;2023-01-09T11:07:54;8.80;99.90
18103;DHT22;9178;51.120;6.192;2023-01-09T11:10:22;8.80;99.90
18103;DHT22;9178;51.120;6.192;2023-01-09T11:12:49;8.70;99.90
18103;DHT22;9178;51.120;6.192;2023-01-09T11:15:24;8.70;99.90
18103;DHT22;9178;51.120;6.192;2023-01-09T11:17:56;8.60;99.90
18103;DHT22;9178;51.120;6.192;2023-01-09T11:20:27;8.60;99.90
18103;DHT22;9178;51.120;6.192;2023-01-09T11:22:56;8.50;99.90
18103;DHT22;9178;51.120;6.192;2023-01-09T11:25:25;8.50;99.90
18103;DHT22;9178;51.120;6.192;2023-01-09T11:28:05;8.40;99.90
18103;DHT22;9178;51.120;6.192;2023-01-09T11:30:33;8.40;99.90
18103;DHT22;9178;51.120;6.192;2023-01-09T11:33:13;8.40;99.90
18103;DHT22;9178;51.120;6.192;2023-01-09T11:35:54;8.40;99.90
18103;DHT22;9178;51.120;6.192;2023-01-09T11:38:21;8.50;99.90
18103;DHT22;9178;51.120;6.192;2023-01-09T11:40:49;8.50;99.90
18103;DHT22;9178;51.120;6.192;2023-01-09T11:43:24;8.50;99.90
18103;DHT22;9178;51.120;6.192;2023-01-09T11:45:56;8.50;99.90
18103;DHT22;9178;51.120;6.192;2023-01-09T11:48:32;8.40;99.90
18103;DHT22;9178;51.120;6.192;2023-01-09T11:51:03;8.40;99.90
18103;DHT22;9178;51.120;6.192;2023-01-09T11:53:44;8.30;99.90
18103;DHT22;9178;51.120;6.192;2023-01-09T11:56:14;8.30;99.90
18103;DHT22;9178;51.120;6.192;2023-01-09T11:58:42;8.30;99.90
18103;DHT22;9178;51.120;6.192;2023-01-09T12:01:22;8.20;99.90
18103;DHT22;9178;51.120;6.192;2023-01-09T12:04:02;8.30;99.90
18103;DHT22;9178;51.120;6.192;2023-01-09T12:06:40;8.30;99.90
18103;DHT22;9178;51.120;6.192;2023-01-09T12:09:13;8.30;99.90
18103;DHT22;9178;51.120;6.192;2023-01-09T12:11:46;8.20;99.90
18103;DHT22;9178;51.120;6.192;2023-01-09T12:14:28;8.30;99.90
18103;DHT22;9178;51.120;6.192;2023-01-09T12:20:15;8.20;99.90
18103;DHT22;9178;51.120;6.192;2023-01-09T12:22:54;8.20;99.90
18103;DHT22;9178;51.120;6.192;2023-01-09T12:25:32;8.10;99.90
18103;DHT22;9178;51.120;6.192;2023-01-09T12:28:37;8.20;99.90
18103;DHT22;9178;51.120;6.192;2023-01-09T12:31:23;8.20;99.90
18103;DHT22;9178;51.120;6.192;2023-01-09T12:33:59;8.20;99.90
18103;DHT22;9178;51.120;6.192;2023-01-09T12:36:31;8.30;99.90
18103;DHT22;9178;51.120;6.192;2023-01-09T12:39:07;8.30;99.90
18103;DHT22;9178;51.120;6.192;2023-01-09T12:42:00;8.30;99.90
18103;DHT22;9178;51.120;6.192;2023-01-09T12:44:50;8.30;99.90
18103;DHT22;9178;51.120;6.192;2023-01-09T12:47:36;8.30;99.90
18103;DHT22;9178;51.120;6.192;2023-01-09T12:50:16;8.30;99.90
18103;DHT22;9178;51.120;6.192;2023-01-09T12:52:50;8.40;99.90
18103;DHT22;9178;51.120;6.192;2023-01-09T12:55:24;8.60;99.90
18103;DHT22;9178;51.120;6.192;2023-01-09T12:57:54;8.80;99.90
18103;DHT22;9178;51.120;6.192;2023-01-09T13:00:26;8.90;99.90
18103;DHT22;9178;51.120;6.192;2023-01-09T13:02:59;8.90;99.90
18103;DHT22;9178;51.120;6.192;2023-01-09T13:05:31;8.90;99.90
18103;DHT22;9178;51.120;6.192;2023-01-09T13:08:02;8.80;99.90
18103;DHT22;9178;51.120;6.192;2023-01-09T13:10:35;8.80;99.90
18103;DHT22;9178;51.120;6.192;2023-01-09T13:13:09;8.80;99.90
18103;DHT22;9178;51.120;6.192;2023-01-09T13:15:40;8.70;99.90
18103;DHT22;9178;51.120;6.192;2023-01-09T13:18:13;8.70;99.90
18103;DHT22;9178;51.120;6.192;2023-01-09T13:20:44;8.60;99.90
18103;DHT22;9178;51.120;6.192;2023-01-09T13:23:16;8.60;99.90
18103;DHT22;9178;51.120;6.192;2023-01-09T13:25:48;8.50;99.90
18103;DHT22;9178;51.120;6.192;2023-01-09T13:28:19;8.50;99.90
18103;DHT22;9178;51.120;6.192;2023-01-09T13:31:10;8.40;99.90
18103;DHT22;9178;51.120;6.192;2023-01-09T13:33:42;8.40;99.90
18103;DHT22;9178;51.120;6.192;2023-01-09T13:36:23;8.40;99.90
18103;DHT22;9178;51.120;6.192;2023-01-09T13:38:52;8.40;99.90
18103;DHT22;9178;51.120;6.192;2023-01-09T13:41:21;8.30;99.90
18103;DHT22;9178;51.120;6.192;2023-01-09T13:44:19;8.30;99.90
18103;DHT22;9178;51.120;6.192;2023-01-09T13:46:48;8.20;99.90
18103;DHT22;9178;51.120;6.192;2023-01-09T13:49:32;8.20;99.90
18103;DHT22;9178;51.120;6.192;2023-01-09T13:52:38;8.20;99.90
18103;DHT22;9178;51.120;6.192;2023-01-09T13:55:21;8.30;99.90
18103;DHT22;9178;51.120;6.192;2023-01-09T13:58:18;8.30;99.90
18103;DHT22;9178;51.120;6.192;2023-01-09T14:00:56;8.20;99.90
18103;DHT22;9178;51.120;6.192;2023-01-09T14:03:25;8.20;99.90
18103;DHT22;9178;51.120;6.192;2023-01-09T14:06:16;8.20;99.90
18103;DHT22;9178;51.120;6.192;2023-01-09T14:08:47;8.10;99.90
18103;DHT22;9178;51.120;6.192;2023-01-09T14:11:18;8.20;99.90
18103;DHT22;9178;51.120;6.192;2023-01-09T14:13:59;8.10;99.90
18103;DHT22;9178;51.120;6.192;2023-01-09T14:16:29;8.10;99.90
18103;DHT22;9178;51.120;6.192;2023-01-09T14:19:01;8.00;99.90
18103;DHT22;9178;51.120;6.192;2023-01-09T14:21:43;8.00;99.90
18103;DHT22;9178;51.120;6.192;2023-01-09T14:24:19;8.00;99.90
18103;DHT22;9178;51.120;6.192;2023-01-09T14:26:48;7.90;99.90
18103;DHT22;9178;51.120;6.192;2023-01-09T14:29:40;7.90;99.90
18103;DHT22;9178;51.120;6.192;2023-01-09T14:32:36;7.80;99.90
18103;DHT22;9178;51.120;6.192;2023-01-09T14:35:12;7.80;99.90
18103;DHT22;9178;51.120;6.192;2023-01-09T14:37:39;7.80;99.90
18103;DHT22;9178;51.120;6.192;2023-01-09T14:40:20;7.70;99.90
18103;DHT22;9178;51.120;6.192;2023-01-09T14:42:52;7.70;99.90
18103;DHT22;9178;51.120;6.192;2023-01-09T14:45:22;7.70;99.90
18103;DHT22;9178;51.120;6.192;2023-01-09T14:47:53;7.70;99.90
18103;DHT22;9178;51.120;6.192;2023-01-09T14:50:28;7.80;99.90
18103;DHT22;9178;51.120;6.192;2023-01-09T14:53:01;7.80;99.90
18103;DHT22;9178;51.120;6.192;2023-01-09T14:55:35;7.80;99.90
18103;DHT22;9178;51.120;6.192;2023-01-09T14:58:18;7.80;99.90
18103;DHT22;9178;51.120;6.192;2023-01-09T15:00:47;7.80;99.90
18103;DHT22;9178;51.120;6.192;2023-01-09T15:03:15;7.80;99.90
18103;DHT22;9178;51.120;6.192;2023-01-09T15:05:43;7.80;99.90
18103;DHT22;9178;51.120;6.192;2023-01-09T15:08:14;7.80;99.90
18103;DHT22;9178;51.120;6.192;2023-01-09T15:10:46;7.80;99.90
18103;DHT22;9178;51.120;6.192;2023-01-09T15:13:16;7.80;99.90
18103;DHT22;9178;51.120;6.192;2023-01-09T15:15:44;7.80;99.90
18103;DHT22;9178;51.120;6.192;2023-01-09T15:18:20;7.80;99.90
18103;DHT22;9178;51.120;6.192;2023-01-09T15:20:52;7.80;99.90
18103;DHT22;9178;51.120;6.192;2023-01-09T15:23:21;7.70;99.90
18103;DHT22;9178;51.120;6.192;2023-01-09T15:25:50;7.70;99.90
18103;DHT22;9178;51.120;6.192;2023-01-09T15:28:38;7.70;99.90
18103;DHT22;9178;51.120;6.192;2023-01-09T15:31:11;7.60;99.90
18103;DHT22;9178;51.120;6.192;2023-01-09T15:33:39;7.60;99.90
18103;DHT22;9178;51.120;6.192;2023-01-09T15:36:11;7.60;99.90
18103;DHT22;9178;51.120;6.192;2023-01-09T15:38:40;7.60;99.90
18103;DHT22;9178;51.120;6.192;2023-01-09T15:41:12;7.50;99.90
18103;DHT22;9178;51.120;6.192;2023-01-09T15:44:02;7.50;99.90
18103;DHT22;9178;51.120;6.192;2023-01-09T15:46:29;7.50;99.90
18103;DHT22;9178;51.120;6.192;2023-01-09T15:48:56;7.50;99.90
18103;DHT22;9178;51.120;6.192;2023-01-09T15:51:23;7.50;99.90
18103;DHT22;9178;51.120;6.192;2023-01-09T15:53:50;7.40;99.90
18103;DHT22;9178;51.120;6.192;2023-01-09T15:56:22;7.40;99.90
18103;DHT22;9178;51.120;6.192;2023-01-09T15:58:50;7.40;99.90
18103;DHT22;9178;51.120;6.192;2023-01-09T16:01:26;7.40;99.90
18103;DHT22;9178;51.120;6.192;2023-01-09T16:03:56;7.30;99.90
18103;DHT22;9178;51.120;6.192;2023-01-09T16:06:25;7.30;99.90
18103;DHT22;9178;51.120;6.192;2023-01-09T16:08:53;7.30;99.90
18103;DHT22;9178;51.120;6.192;2023-01-09T16:11:25;7.20;99.90
18103;DHT22;9178;51.120;6.192;2023-01-09T16:13:53;7.10;99.90
18103;DHT22;9178;51.120;6.192;2023-01-09T16:16:23;7.00;99.90
18103;DHT22;9178;51.120;6.192;2023-01-09T16:18:52;6.90;99.90
18103;DHT22;9178;51.120;6.192;2023-01-09T16:21:33;6.90;99.90
18103;DHT22;9178;51.120;6.192;2023-01-09T16:24:02;6.90;99.90
18103;DHT22;9178;51.120;6.192;2023-01-09T16:26:46;6.80;99.90
18103;DHT22;9178;51.120;6.192;2023-01-09T16:29:26;6.80;99.90
18103;DHT22;9178;51.120;6.192;2023-01-09T16:32:00;6.70;99.90
18103;DHT22;9178;51.120;6.192;2023-01-09T16:34:28;6.70;99.90
18103;DHT22;9178;51.120;6.192;2023-01-09T16:36:54;6.70;99.90